createdAt,value
2018-12-20T00:02:20.635Z,5.85
2018-12-20T00:04:49.685Z,5.20
2018-12-20T00:07:20.060Z,5.10
2018-12-20T00:09:49.087Z,5.55
2018-12-20T00:12:22.833Z,6.10
2018-12-20T00:14:51.904Z,4.55
2018-12-20T00:17:29.992Z,7.67
2018-12-20T00:19:59.053Z,6.08
2018-12-20T00:22:27.973Z,5.08
2018-12-20T00:24:56.970Z,7.05
2018-12-20T00:27:26.125Z,7.42
2018-12-20T00:29:55.016Z,8.20
2018-12-20T00:32:24.095Z,6.75
2018-12-20T00:34:53.790Z,7.05
2018-12-20T00:37:22.843Z,7.42
2018-12-20T00:39:52.008Z,6.75
2018-12-20T00:42:21.226Z,6.95
2018-12-20T00:44:50.232Z,5.50
2018-12-20T00:47:19.315Z,5.33
2018-12-20T00:49:48.396Z,7.50
2018-12-20T00:52:17.372Z,8.20
2018-12-20T00:54:46.372Z,7.53
2018-12-20T00:57:15.390Z,8.00
2018-12-20T00:59:44.429Z,9.20
2018-12-20T01:02:13.444Z,8.73
2018-12-20T01:04:42.548Z,10.53
2018-12-20T01:07:11.446Z,17.07
2018-12-20T01:09:40.348Z,14.93
2018-12-20T01:12:09.475Z,13.23
2018-12-20T01:14:45.163Z,17.30
2018-12-20T01:17:09.447Z,16.20
2018-12-20T01:19:38.423Z,17.70
2018-12-20T01:22:07.407Z,17.67
2018-12-20T01:24:36.400Z,19.20
2018-12-20T01:27:05.315Z,23.23
2018-12-20T01:29:35.302Z,11.87
2018-12-20T01:32:04.418Z,9.57
2018-12-20T01:34:33.478Z,15.50
2018-12-20T01:37:02.473Z,12.40
2018-12-20T01:39:31.634Z,16.37
2018-12-20T01:42:00.663Z,16.40
2018-12-20T01:44:29.583Z,3.60
2018-12-20T01:46:58.732Z,13.67
2018-12-20T01:49:28.764Z,15.23
2018-12-20T01:51:58.840Z,15.63
2018-12-20T01:54:27.895Z,13.57
2018-12-20T01:56:57.032Z,13.37
2018-12-20T01:59:26.083Z,10.53
2018-12-20T02:01:55.017Z,15.27
2018-12-20T02:04:23.966Z,22.10
2018-12-20T02:06:53.775Z,42.20
2018-12-20T02:09:22.736Z,26.40
2018-12-20T02:11:51.656Z,0.20
2018-12-20T02:14:20.628Z,0.30
2018-12-20T02:16:49.581Z,0.67
2018-12-20T02:19:18.569Z,0.30
2018-12-20T02:21:47.771Z,0.20
2018-12-20T02:24:16.752Z,0.20
2018-12-20T02:26:45.747Z,0.33
2018-12-20T02:29:14.915Z,0.30
2018-12-20T02:31:44.032Z,0.50
2018-12-20T02:34:13.194Z,0.20
2018-12-20T02:36:43.108Z,0.40
2018-12-20T02:39:12.071Z,0.30
2018-12-20T02:41:41.126Z,0.23
2018-12-20T02:44:10.251Z,0.20
2018-12-20T02:46:39.355Z,0.20
2018-12-20T02:49:08.428Z,0.33
2018-12-20T02:51:37.434Z,0.20
2018-12-20T02:54:06.457Z,0.20
2018-12-20T02:56:36.549Z,0.50
2018-12-20T02:59:05.666Z,0.20
2018-12-20T03:01:34.630Z,0.20
2018-12-20T03:04:03.572Z,0.30
2018-12-20T03:06:32.561Z,0.20
2018-12-20T03:09:01.499Z,0.20
2018-12-20T03:11:30.453Z,0.30
2018-12-20T03:13:59.595Z,0.20
2018-12-20T03:16:28.590Z,0.20
2018-12-20T03:18:57.526Z,0.50
2018-12-20T03:21:26.825Z,0.20
2018-12-20T03:23:55.938Z,0.27
2018-12-20T03:26:24.894Z,0.20
2018-12-20T03:28:54.792Z,0.20
2018-12-20T03:31:23.807Z,0.50
2018-12-20T03:33:52.809Z,0.20
2018-12-20T03:36:21.935Z,0.30
2018-12-20T03:38:50.982Z,0.20
2018-12-20T03:41:20.080Z,0.40
2018-12-20T03:43:49.165Z,0.30
2018-12-20T03:46:18.118Z,0.40
2018-12-20T03:48:47.050Z,0.20
2018-12-20T03:51:16.446Z,0.20
2018-12-20T03:53:45.376Z,0.73
2018-12-20T03:56:14.740Z,0.30
2018-12-20T03:58:43.989Z,0.40
2018-12-20T04:01:13.000Z,0.20
2018-12-20T04:03:41.914Z,0.30
2018-12-20T04:06:11.412Z,0.30
2018-12-20T04:08:40.415Z,0.20
2018-12-20T04:11:09.337Z,0.30
2018-12-20T04:13:38.509Z,0.20
2018-12-20T04:16:07.512Z,0.30
2018-12-20T04:18:36.417Z,0.30
2018-12-20T04:21:05.484Z,0.30
2018-12-20T04:23:34.451Z,0.30
2018-12-20T04:26:03.373Z,0.37
2018-12-20T04:28:32.410Z,0.30
2018-12-20T04:31:01.391Z,0.20
2018-12-20T04:33:30.332Z,0.20
2018-12-20T04:35:59.488Z,0.50
2018-12-20T04:38:28.757Z,0.50
2018-12-20T04:40:57.786Z,0.30
2018-12-20T04:43:26.754Z,0.20
2018-12-20T04:45:55.766Z,0.50
2018-12-20T04:48:25.772Z,0.60
2018-12-20T04:50:54.819Z,0.50
2018-12-20T04:53:23.895Z,1.00
2018-12-20T04:55:52.979Z,0.20
2018-12-20T04:58:22.254Z,0.20
2018-12-20T05:00:51.478Z,0.20
2018-12-20T05:03:20.481Z,0.30
2018-12-20T05:05:49.882Z,0.20
2018-12-20T05:08:18.861Z,0.30
2018-12-20T05:10:47.806Z,0.70
2018-12-20T05:13:16.900Z,0.30
2018-12-20T05:15:46.139Z,0.30
2018-12-20T05:18:15.201Z,0.40
2018-12-20T05:20:44.419Z,0.20
2018-12-20T05:23:14.409Z,0.50
2018-12-20T05:25:43.418Z,0.23
2018-12-20T05:28:12.438Z,0.20
2018-12-20T05:30:41.363Z,0.20
2018-12-20T05:33:10.298Z,0.30
2018-12-20T05:35:39.396Z,0.20
2018-12-20T05:38:08.753Z,0.20
2018-12-20T05:40:37.745Z,0.40
2018-12-20T05:43:06.883Z,0.70
2018-12-20T05:45:39.207Z,0.20
2018-12-20T05:48:08.291Z,0.20
2018-12-20T05:50:37.276Z,0.40
2018-12-20T05:53:07.117Z,0.40
2018-12-20T05:55:36.991Z,0.43
2018-12-20T05:58:06.132Z,0.30
2018-12-20T06:00:35.120Z,0.53
2018-12-20T06:03:04.344Z,0.30
2018-12-20T06:05:33.428Z,0.80
2018-12-20T06:08:02.411Z,0.20
2018-12-20T06:10:31.416Z,0.30
2018-12-20T06:13:00.344Z,0.30
2018-12-20T06:15:29.292Z,0.47
2018-12-20T06:17:59.163Z,0.50
2018-12-20T06:20:28.088Z,0.50
2018-12-20T06:22:57.004Z,0.40
2018-12-20T06:25:26.117Z,0.20
2018-12-20T06:27:55.064Z,0.43
2018-12-20T06:30:23.978Z,0.27
2018-12-20T06:32:53.721Z,0.43
2018-12-20T06:35:22.652Z,0.20
2018-12-20T06:37:51.552Z,0.20
2018-12-20T06:40:20.606Z,0.30
2018-12-20T06:42:49.522Z,0.40
2018-12-20T06:45:18.508Z,0.20
2018-12-20T06:47:47.540Z,0.20
2018-12-20T06:50:17.437Z,0.20
2018-12-20T06:52:46.352Z,0.20
2018-12-20T06:55:15.338Z,0.20
2018-12-20T06:57:44.344Z,0.30
2018-12-20T07:00:13.363Z,0.30
2018-12-20T07:02:42.342Z,0.87
2018-12-20T07:05:11.264Z,0.20
2018-12-20T07:07:40.288Z,0.20
2018-12-20T07:10:09.636Z,0.40
2018-12-20T07:12:39.522Z,0.50
2018-12-20T07:15:08.888Z,0.45
2018-12-20T07:17:37.892Z,1.15
2018-12-20T07:20:06.996Z,0.75
2018-12-20T07:22:36.101Z,0.30
2018-12-20T07:25:05.595Z,0.20
2018-12-20T07:27:36.296Z,0.20
2018-12-20T07:30:06.291Z,0.42
2018-12-20T07:32:35.220Z,0.30
2018-12-20T07:35:05.161Z,0.55
2018-12-20T07:37:34.213Z,0.53
2018-12-20T07:40:03.566Z,0.40
2018-12-20T07:42:32.565Z,1.05
2018-12-20T07:45:01.695Z,0.62
2018-12-20T07:47:30.895Z,1.10
2018-12-20T07:49:59.863Z,0.60
2018-12-20T07:52:28.967Z,0.40
2018-12-20T07:54:57.886Z,0.50
2018-12-20T07:57:26.796Z,0.30
2018-12-20T07:59:55.794Z,0.68
2018-12-20T08:02:25.068Z,0.37
2018-12-20T08:04:54.027Z,0.78
2018-12-20T08:07:23.019Z,0.30
2018-12-20T08:09:52.359Z,0.35
2018-12-20T08:12:21.310Z,0.93
2018-12-20T08:14:50.622Z,0.37
2018-12-20T08:17:19.516Z,0.82
2018-12-20T08:19:48.454Z,0.20
2018-12-20T08:22:17.448Z,0.30
2018-12-20T08:24:46.383Z,0.62
2018-12-20T08:27:15.573Z,0.40
2018-12-20T08:29:44.593Z,0.20
2018-12-20T08:32:13.515Z,0.47
2018-12-20T08:34:42.651Z,0.37
2018-12-20T08:37:11.617Z,0.33
2018-12-20T08:39:40.545Z,0.20
2018-12-20T08:42:09.484Z,0.30
2018-12-20T08:44:38.568Z,0.20
2018-12-20T08:47:07.476Z,0.50
2018-12-20T08:49:36.382Z,0.68
2018-12-20T08:52:05.440Z,0.30
2018-12-20T08:54:34.553Z,0.40
2018-12-20T08:57:04.425Z,0.50
2018-12-20T08:59:33.532Z,0.40
2018-12-20T09:02:02.457Z,0.30
2018-12-20T09:04:31.436Z,0.53
2018-12-20T09:07:00.461Z,1.25
2018-12-20T09:09:30.524Z,0.25
2018-12-20T09:11:59.587Z,0.50
2018-12-20T09:14:28.605Z,0.30
2018-12-20T09:17:02.898Z,1.27
2018-12-20T09:19:29.224Z,0.30
2018-12-20T09:21:58.172Z,0.50
2018-12-20T09:24:27.125Z,0.30
2018-12-20T09:26:56.751Z,0.53
2018-12-20T09:29:25.781Z,0.35
2018-12-20T09:31:54.709Z,0.20
2018-12-20T09:34:24.751Z,0.30
2018-12-20T09:36:53.800Z,0.60
2018-12-20T09:39:23.917Z,0.40
2018-12-20T09:41:52.964Z,0.30
2018-12-20T09:44:21.936Z,0.20
2018-12-20T09:46:54.071Z,0.28
2018-12-20T09:49:23.042Z,0.20
2018-12-20T09:51:52.087Z,0.20
2018-12-20T09:54:21.981Z,0.35
2018-12-20T09:56:50.914Z,0.40
2018-12-20T09:59:19.824Z,0.20
2018-12-20T10:01:48.856Z,0.30
2018-12-20T10:04:17.800Z,0.20
2018-12-20T10:06:46.693Z,0.20
2018-12-20T10:09:15.672Z,0.42
2018-12-20T10:11:44.856Z,0.20
2018-12-20T10:14:13.764Z,0.30
2018-12-20T10:16:42.761Z,0.33
2018-12-20T10:19:11.742Z,0.20
2018-12-20T10:21:40.636Z,0.28
2018-12-20T10:24:11.059Z,0.30
2018-12-20T10:26:39.996Z,1.20
2018-12-20T10:29:15.190Z,0.30
2018-12-20T10:31:44.187Z,0.40
2018-12-20T10:34:13.133Z,0.65
2018-12-20T10:36:42.092Z,1.02
2018-12-20T10:39:11.001Z,0.30
2018-12-20T10:41:39.913Z,0.30
2018-12-20T10:44:08.910Z,0.20
2018-12-20T10:46:37.824Z,0.30
2018-12-20T10:49:06.825Z,0.57
2018-12-20T10:51:35.880Z,0.42
2018-12-20T10:54:04.807Z,0.85
2018-12-20T10:56:34.759Z,0.50
2018-12-20T10:59:11.498Z,0.55
2018-12-20T11:01:49.469Z,0.30
2018-12-20T11:04:22.756Z,0.68
2018-12-20T11:07:00.308Z,0.40
2018-12-20T11:09:36.009Z,0.50
2018-12-20T11:12:08.910Z,1.65
2018-12-20T11:14:38.061Z,0.57
2018-12-20T11:17:07.058Z,0.20
2018-12-20T11:19:35.961Z,0.30
2018-12-20T11:22:05.038Z,0.75
2018-12-20T11:24:33.992Z,0.88
2018-12-20T11:27:02.896Z,0.28
2018-12-20T11:29:31.959Z,0.40
2018-12-20T11:32:02.002Z,0.42
2018-12-20T11:34:34.976Z,0.55
2018-12-20T11:37:14.969Z,0.20
2018-12-20T11:40:02.393Z,0.40
2018-12-20T11:42:50.176Z,0.20
2018-12-20T11:45:28.653Z,0.20
2018-12-20T11:48:23.301Z,0.60
2018-12-20T11:54:11.465Z,0.50
2018-12-20T12:02:38.384Z,0.28
2018-12-20T12:05:27.959Z,0.40
2018-12-20T12:08:15.727Z,0.30
2018-12-20T12:10:46.924Z,0.60
2018-12-20T12:13:35.014Z,0.45
2018-12-20T12:16:25.560Z,0.30
2018-12-20T12:22:11.620Z,0.30
2018-12-20T12:25:02.092Z,0.42
2018-12-20T12:27:50.804Z,0.30
2018-12-20T12:33:20.658Z,0.20
2018-12-20T12:35:56.510Z,0.53
2018-12-20T12:38:25.644Z,0.40
2018-12-20T12:40:54.711Z,0.45
2018-12-20T12:43:23.722Z,1.20
2018-12-20T12:45:52.628Z,0.50
2018-12-20T12:48:34.993Z,0.47
2018-12-20T12:51:03.989Z,0.50
2018-12-20T12:53:32.916Z,0.20
2018-12-20T12:56:01.944Z,0.20
2018-12-20T12:58:30.883Z,0.30
2018-12-20T13:00:59.796Z,1.10
2018-12-20T13:03:28.848Z,0.40
2018-12-20T13:05:57.971Z,0.30
2018-12-20T13:08:34.111Z,0.30
2018-12-20T13:11:03.065Z,10.55
2018-12-20T13:13:31.990Z,0.00
2018-12-20T13:16:01.083Z,0.20
2018-12-20T13:18:30.060Z,0.00
2018-12-20T13:20:59.033Z,0.00
2018-12-20T13:23:28.021Z,0.28
2018-12-20T13:25:56.941Z,0.10
2018-12-20T13:28:25.932Z,0.45
2018-12-20T13:30:54.921Z,0.00
2018-12-20T13:33:23.840Z,0.00
2018-12-20T13:35:52.748Z,0.00
2018-12-20T13:38:21.803Z,0.00
2018-12-20T13:40:51.664Z,0.17
2018-12-20T13:43:20.570Z,0.00
2018-12-20T13:45:49.560Z,0.00
2018-12-20T13:48:22.178Z,0.00
2018-12-20T13:50:49.523Z,0.00
2018-12-20T13:53:19.202Z,0.00
2018-12-20T13:55:48.116Z,0.30
2018-12-20T13:58:17.125Z,0.00
2018-12-20T14:00:46.022Z,0.00
2018-12-20T14:03:14.922Z,0.00
2018-12-20T14:05:43.940Z,0.00
2018-12-20T14:08:12.872Z,0.00
2018-12-20T14:10:41.799Z,0.00
2018-12-20T14:13:11.024Z,0.00
2018-12-20T14:15:39.964Z,0.00
2018-12-20T14:18:08.936Z,0.00
2018-12-20T14:20:37.975Z,0.00
2018-12-20T14:23:06.984Z,0.20
2018-12-20T14:25:36.656Z,0.00
2018-12-20T14:28:06.565Z,0.00
2018-12-20T14:30:35.521Z,0.10
2018-12-20T14:33:04.437Z,0.00
2018-12-20T14:35:33.441Z,0.00
2018-12-20T14:38:02.352Z,0.00
2018-12-20T14:40:31.268Z,0.00
2018-12-20T14:43:00.245Z,0.00
2018-12-20T14:45:29.160Z,0.00
2018-12-20T14:47:58.073Z,0.00
2018-12-20T14:50:27.076Z,0.00
2018-12-20T14:52:55.985Z,0.00
2018-12-20T14:55:24.964Z,0.00
2018-12-20T14:57:53.932Z,0.00
2018-12-20T15:00:24.120Z,0.00
2018-12-20T15:02:53.042Z,0.00
2018-12-20T15:05:22.044Z,0.00
2018-12-20T15:07:50.986Z,0.00
2018-12-20T15:10:19.898Z,0.00
2018-12-20T15:12:48.853Z,0.00
2018-12-20T15:15:17.748Z,0.00
2018-12-20T15:17:46.645Z,0.00
2018-12-20T15:20:15.710Z,0.00
2018-12-20T15:22:44.624Z,0.03
2018-12-20T15:25:13.541Z,0.00
2018-12-20T15:27:42.681Z,0.00
2018-12-20T15:30:11.635Z,0.00
2018-12-20T15:32:40.535Z,0.10
2018-12-20T15:35:09.538Z,0.20
2018-12-20T15:37:38.488Z,0.00
2018-12-20T15:40:08.335Z,0.00
2018-12-20T15:42:37.321Z,0.00
2018-12-20T15:45:06.930Z,0.00
2018-12-20T15:47:35.831Z,0.00
2018-12-20T15:50:05.686Z,0.10
2018-12-20T15:52:34.603Z,0.10
2018-12-20T15:55:03.519Z,0.00
2018-12-20T15:57:32.730Z,0.00
2018-12-20T16:00:01.671Z,682.20
2018-12-20T16:02:30.584Z,610.97
2018-12-20T16:04:59.589Z,589.60
2018-12-20T16:07:28.571Z,409.22
2018-12-20T16:09:57.514Z,405.35
2018-12-20T16:12:27.064Z,348.30
2018-12-20T16:14:56.948Z,337.08
2018-12-20T16:17:25.857Z,493.43
2018-12-20T16:19:54.865Z,604.80
2018-12-20T16:22:24.780Z,594.85
2018-12-20T16:24:53.708Z,547.67
2018-12-20T16:27:22.943Z,581.70
2018-12-20T16:29:51.843Z,552.50
2018-12-20T16:32:20.792Z,501.35
2018-12-20T16:34:50.200Z,364.60
2018-12-20T16:37:19.156Z,387.98
2018-12-20T16:39:48.077Z,430.75
2018-12-20T16:42:17.093Z,363.35
2018-12-20T16:44:46.059Z,384.32
2018-12-20T16:47:15.056Z,425.85
2018-12-20T16:49:44.177Z,418.82
2018-12-20T16:52:13.109Z,241.45
2018-12-20T16:54:42.028Z,182.65
2018-12-20T16:57:11.033Z,163.03
2018-12-20T16:59:40.013Z,175.38
2018-12-20T17:02:08.992Z,159.10
2018-12-20T17:04:37.986Z,118.90
2018-12-20T17:07:07.263Z,245.45
2018-12-20T17:09:36.277Z,152.75
2018-12-20T17:12:05.396Z,9.53
2018-12-20T17:14:34.296Z,1.62
2018-12-20T17:17:03.208Z,10.38
2018-12-20T17:19:32.720Z,5.80
2018-12-20T17:22:01.650Z,4.95
2018-12-20T17:24:30.568Z,3.42
2018-12-20T17:26:59.525Z,6.37
2018-12-20T17:29:28.480Z,4.53
2018-12-20T17:31:57.412Z,9.95
2018-12-20T17:34:26.412Z,4.12
2018-12-20T17:36:55.490Z,1.47
2018-12-20T17:39:24.392Z,1.75
2018-12-20T17:41:53.536Z,2.55
2018-12-20T17:44:22.439Z,12.90
2018-12-20T17:46:52.588Z,192.72
2018-12-20T17:49:21.567Z,8.15
2018-12-20T17:51:50.481Z,3.55
2018-12-20T17:54:19.417Z,0.00
2018-12-20T17:56:48.469Z,0.10
2018-12-20T17:59:18.436Z,6.45
2018-12-20T18:01:47.436Z,7.28
2018-12-20T18:04:16.440Z,2.05
2018-12-20T18:06:46.197Z,24.35
2018-12-20T18:09:15.095Z,7.72
2018-12-20T18:11:44.129Z,0.20
2018-12-20T18:14:13.260Z,4.97
2018-12-20T18:16:42.635Z,0.00
2018-12-20T18:19:12.401Z,2.20
2018-12-20T18:21:42.282Z,0.00
2018-12-20T18:24:11.181Z,0.00
2018-12-20T18:26:40.203Z,0.00
2018-12-20T18:29:09.181Z,0.00
2018-12-20T18:31:39.104Z,0.00
2018-12-20T18:34:08.069Z,4.17
2018-12-20T18:36:36.960Z,0.00
2018-12-20T18:39:07.093Z,2.20
2018-12-20T18:41:36.373Z,0.00
2018-12-20T18:44:05.313Z,0.00
2018-12-20T18:46:34.249Z,0.00
2018-12-20T18:49:03.268Z,0.00
2018-12-20T18:51:32.185Z,0.00
2018-12-20T18:54:01.098Z,0.47
2018-12-20T18:56:30.066Z,0.05
2018-12-20T18:58:58.997Z,0.00
2018-12-20T19:01:27.909Z,0.00
2018-12-20T19:03:56.944Z,0.75
2018-12-20T19:06:25.841Z,0.00
2018-12-20T19:08:54.737Z,0.00
2018-12-20T19:11:24.820Z,0.00
2018-12-20T19:13:53.720Z,0.00
2018-12-20T19:16:22.651Z,321.68
2018-12-20T19:18:51.677Z,999.90
2018-12-20T19:21:20.586Z,999.90
2018-12-20T19:23:49.501Z,0.00
2018-12-20T19:26:18.580Z,999.90
2018-12-20T19:28:47.486Z,166.82
2018-12-20T19:31:16.396Z,999.90
2018-12-20T19:33:45.363Z,895.50
2018-12-20T19:36:14.339Z,0.00
2018-12-20T19:38:43.256Z,8.55
2018-12-20T19:41:12.253Z,143.97
2018-12-20T19:43:41.169Z,0.00
2018-12-20T19:46:10.052Z,0.00
2018-12-20T19:48:39.013Z,0.45
2018-12-20T19:51:07.919Z,0.00
2018-12-20T19:53:36.820Z,0.00
2018-12-20T19:56:05.788Z,0.00
2018-12-20T19:58:34.683Z,0.00
2018-12-20T20:01:04.722Z,0.00
2018-12-20T20:03:33.707Z,0.00
2018-12-20T20:06:02.696Z,0.00
2018-12-20T20:08:31.616Z,0.00
2018-12-20T20:11:00.626Z,0.00
2018-12-20T20:13:30.791Z,0.00
2018-12-20T20:16:00.182Z,0.23
2018-12-20T20:18:29.108Z,0.00
2018-12-20T20:20:58.518Z,0.00
2018-12-20T20:23:27.511Z,0.00
2018-12-20T20:25:56.414Z,0.00
2018-12-20T20:28:25.323Z,0.00
2018-12-20T20:30:54.288Z,0.00
2018-12-20T20:33:23.169Z,0.00
2018-12-20T20:35:52.070Z,0.00
2018-12-20T20:38:21.040Z,0.85
2018-12-20T20:40:49.937Z,0.20
2018-12-20T20:43:18.844Z,0.00
2018-12-20T20:45:48.620Z,2.12
2018-12-20T20:48:17.508Z,0.00
2018-12-20T20:50:46.417Z,0.00
2018-12-20T20:53:15.520Z,0.00
2018-12-20T20:55:44.420Z,0.00
2018-12-20T20:58:13.344Z,0.00
2018-12-20T21:00:42.345Z,0.00
2018-12-20T21:03:11.265Z,0.00
2018-12-20T21:05:40.215Z,0.00
2018-12-20T21:08:09.289Z,0.00
2018-12-20T21:10:44.329Z,0.00
2018-12-20T21:13:13.300Z,0.00
2018-12-20T21:15:42.190Z,0.00
2018-12-20T21:18:11.092Z,0.00
2018-12-20T21:20:40.128Z,0.00
2018-12-20T21:23:09.012Z,0.00
2018-12-20T21:25:37.920Z,0.00
2018-12-20T21:28:07.899Z,0.00
2018-12-20T21:30:36.799Z,0.00
2018-12-20T21:33:06.606Z,0.00
2018-12-20T21:35:36.081Z,0.00
2018-12-20T21:38:04.994Z,0.00
2018-12-20T21:40:33.925Z,0.00
2018-12-20T21:43:02.918Z,0.00
2018-12-20T21:45:31.816Z,0.00
2018-12-20T21:48:00.707Z,0.00
2018-12-20T21:50:29.681Z,0.00
2018-12-20T21:52:58.584Z,0.00
2018-12-20T21:55:27.471Z,0.00
2018-12-20T21:57:57.400Z,0.00
2018-12-20T22:00:26.309Z,0.00
2018-12-20T22:02:55.265Z,0.00
2018-12-20T22:05:24.238Z,0.00
2018-12-20T22:07:53.169Z,0.00
2018-12-20T22:10:22.137Z,0.00
2018-12-20T22:12:52.096Z,0.00
2018-12-20T22:15:21.006Z,0.00
2018-12-20T22:17:49.892Z,0.13
2018-12-20T22:20:18.921Z,0.00
2018-12-20T22:22:47.812Z,0.00
2018-12-20T22:25:16.960Z,0.00
2018-12-20T22:27:45.932Z,0.00
2018-12-20T22:30:14.861Z,0.00
2018-12-20T22:32:43.773Z,0.00
2018-12-20T22:35:12.732Z,0.00
2018-12-20T22:37:41.630Z,0.00
2018-12-20T22:40:10.516Z,0.00
2018-12-20T22:42:39.665Z,0.00
2018-12-20T22:45:09.228Z,0.00
2018-12-20T22:47:38.146Z,0.00
2018-12-20T22:50:08.369Z,0.00
2018-12-20T22:52:54.992Z,0.00
2018-12-20T22:55:24.797Z,0.00
2018-12-20T22:57:53.704Z,0.00
2018-12-20T23:00:22.612Z,0.20
2018-12-20T23:02:51.828Z,0.00
2018-12-20T23:05:20.773Z,0.00
2018-12-20T23:07:49.720Z,0.00
2018-12-20T23:10:18.877Z,0.00
2018-12-20T23:12:47.839Z,0.00
2018-12-20T23:15:16.729Z,0.00
2018-12-20T23:17:45.712Z,0.00
2018-12-20T23:20:14.678Z,0.00
2018-12-20T23:22:43.605Z,0.00
2018-12-20T23:25:12.573Z,0.00
2018-12-20T23:27:41.468Z,0.00
2018-12-20T23:30:10.385Z,0.00
2018-12-20T23:32:40.331Z,0.00
2018-12-20T23:35:09.236Z,0.00
2018-12-20T23:37:38.120Z,0.00
2018-12-20T23:40:07.148Z,0.00
2018-12-20T23:42:36.046Z,0.00
2018-12-20T23:45:06.202Z,0.00
2018-12-20T23:47:35.169Z,0.00
2018-12-20T23:50:04.385Z,0.00
2018-12-20T23:52:33.401Z,0.00
2018-12-20T23:55:02.586Z,0.00
2018-12-20T23:57:31.509Z,0.00
